sensor_id;sensor_type;location;lat;lon;timestamp;P1;durP1;ratioP1;P2;durP2;ratioP2
20034;SDS011;10178;48.034;9.800;2023-09-12T00:01:16;6.28;;;5.68;;
20034;SDS011;10178;48.034;9.800;2023-09-12T00:03:41;5.78;;;5.28;;
20034;SDS011;10178;48.034;9.800;2023-09-12T00:06:07;6.10;;;5.50;;
20034;SDS011;10178;48.034;9.800;2023-09-12T00:08:32;6.22;;;5.63;;
20034;SDS011;10178;48.034;9.800;2023-09-12T00:11:02;6.35;;;5.30;;
20034;SDS011;10178;48.034;9.800;2023-09-12T00:13:35;5.80;;;5.30;;
20034;SDS011;10178;48.034;9.800;2023-09-12T00:16:01;7.45;;;5.53;;
20034;SDS011;10178;48.034;9.800;2023-09-12T00:18:29;5.82;;;5.32;;
20034;SDS011;10178;48.034;9.800;2023-09-12T00:21:32;6.32;;;5.72;;
20034;SDS011;10178;48.034;9.800;2023-09-12T00:26:59;5.20;;;4.78;;
20034;SDS011;10178;48.034;9.800;2023-09-12T00:29:29;4.68;;;4.28;;
20034;SDS011;10178;48.034;9.800;2023-09-12T00:31:55;4.95;;;4.55;;
20034;SDS011;10178;48.034;9.800;2023-09-12T00:34:21;4.90;;;4.40;;
20034;SDS011;10178;48.034;9.800;2023-09-12T00:36:46;5.50;;;4.63;;
20034;SDS011;10178;48.034;9.800;2023-09-12T00:39:12;4.50;;;4.10;;
20034;SDS011;10178;48.034;9.800;2023-09-12T00:41:37;5.28;;;4.05;;
20034;SDS011;10178;48.034;9.800;2023-09-12T00:44:03;5.10;;;4.60;;
20034;SDS011;10178;48.034;9.800;2023-09-12T00:46:29;6.20;;;4.65;;
20034;SDS011;10178;48.034;9.800;2023-09-12T00:48:56;5.10;;;4.68;;
20034;SDS011;10178;48.034;9.800;2023-09-12T00:51:24;5.35;;;4.55;;
20034;SDS011;10178;48.034;9.800;2023-09-12T00:53:52;5.00;;;4.60;;
20034;SDS011;10178;48.034;9.800;2023-09-12T00:56:19;4.55;;;4.15;;
20034;SDS011;10178;48.034;9.800;2023-09-12T00:58:44;4.50;;;4.10;;
20034;SDS011;10178;48.034;9.800;2023-09-12T01:01:14;4.63;;;4.20;;
20034;SDS011;10178;48.034;9.800;2023-09-12T01:04:11;4.90;;;4.50;;
20034;SDS011;10178;48.034;9.800;2023-09-12T01:06:36;4.90;;;4.50;;
20034;SDS011;10178;48.034;9.800;2023-09-12T01:09:03;4.93;;;4.35;;
20034;SDS011;10178;48.034;9.800;2023-09-12T01:11:29;5.38;;;4.95;;
20034;SDS011;10178;48.034;9.800;2023-09-12T01:13:56;4.72;;;4.32;;
20034;SDS011;10178;48.034;9.800;2023-09-12T01:16:21;6.32;;;4.68;;
20034;SDS011;10178;48.034;9.800;2023-09-12T01:18:47;5.38;;;4.97;;
20034;SDS011;10178;48.034;9.800;2023-09-12T01:29:40;7.22;;;5.85;;
20034;SDS011;10178;48.034;9.800;2023-09-12T01:32:09;5.95;;;5.03;;
20034;SDS011;10178;48.034;9.800;2023-09-12T01:34:35;5.53;;;4.63;;
20034;SDS011;10178;48.034;9.800;2023-09-12T01:37:01;7.80;;;5.07;;
20034;SDS011;10178;48.034;9.800;2023-09-12T01:39:27;5.10;;;4.60;;
20034;SDS011;10178;48.034;9.800;2023-09-12T01:41:53;5.43;;;4.93;;
20034;SDS011;10178;48.034;9.800;2023-09-12T01:44:20;5.43;;;4.93;;
20034;SDS011;10178;48.034;9.800;2023-09-12T01:46:50;5.10;;;4.70;;
20034;SDS011;10178;48.034;9.800;2023-09-12T01:49:18;5.43;;;4.95;;
20034;SDS011;10178;48.034;9.800;2023-09-12T01:51:47;5.30;;;4.80;;
20034;SDS011;10178;48.034;9.800;2023-09-12T01:54:13;7.05;;;5.30;;
20034;SDS011;10178;48.034;9.800;2023-09-12T01:56:42;5.53;;;5.00;;
20034;SDS011;10178;48.034;9.800;2023-09-12T01:59:08;6.18;;;5.18;;
20034;SDS011;10178;48.034;9.800;2023-09-12T02:01:34;6.15;;;5.65;;
20034;SDS011;10178;48.034;9.800;2023-09-12T02:03:59;5.40;;;4.90;;
20034;SDS011;10178;48.034;9.800;2023-09-12T02:06:25;6.47;;;5.50;;
20034;SDS011;10178;48.034;9.800;2023-09-12T02:08:51;6.90;;;6.22;;
20034;SDS011;10178;48.034;9.800;2023-09-12T02:11:16;7.45;;;5.65;;
20034;SDS011;10178;48.034;9.800;2023-09-12T02:13:42;6.30;;;5.70;;
20034;SDS011;10178;48.034;9.800;2023-09-12T02:16:07;6.55;;;5.95;;
20034;SDS011;10178;48.034;9.800;2023-09-12T02:18:33;6.13;;;5.53;;
20034;SDS011;10178;48.034;9.800;2023-09-12T02:21:00;6.25;;;5.65;;
20034;SDS011;10178;48.034;9.800;2023-09-12T02:23:26;7.10;;;6.40;;
20034;SDS011;10178;48.034;9.800;2023-09-12T02:25:51;6.30;;;5.57;;
20034;SDS011;10178;48.034;9.800;2023-09-12T02:28:17;6.50;;;5.85;;
20034;SDS011;10178;48.034;9.800;2023-09-12T02:30:42;6.40;;;5.80;;
20034;SDS011;10178;48.034;9.800;2023-09-12T02:33:08;6.40;;;5.78;;
20034;SDS011;10178;48.034;9.800;2023-09-12T02:35:34;6.97;;;5.80;;
20034;SDS011;10178;48.034;9.800;2023-09-12T02:37:59;7.07;;;6.07;;
20034;SDS011;10178;48.034;9.800;2023-09-12T02:40:25;6.28;;;5.53;;
20034;SDS011;10178;48.034;9.800;2023-09-12T02:42:51;6.80;;;5.10;;
20034;SDS011;10178;48.034;9.800;2023-09-12T02:45:17;6.80;;;5.32;;
20034;SDS011;10178;48.034;9.800;2023-09-12T02:47:43;6.00;;;4.72;;
20034;SDS011;10178;48.034;9.800;2023-09-12T02:50:08;6.80;;;4.43;;
20034;SDS011;10178;48.034;9.800;2023-09-12T02:52:34;5.85;;;5.22;;
20034;SDS011;10178;48.034;9.800;2023-09-12T02:55:00;6.60;;;4.60;;
20034;SDS011;10178;48.034;9.800;2023-09-12T02:57:26;4.97;;;4.35;;
20034;SDS011;10178;48.034;9.800;2023-09-12T02:59:51;5.22;;;4.72;;
20034;SDS011;10178;48.034;9.800;2023-09-12T03:02:17;4.68;;;4.13;;
20034;SDS011;10178;48.034;9.800;2023-09-12T03:04:42;5.07;;;4.07;;
20034;SDS011;10178;48.034;9.800;2023-09-12T03:07:08;5.60;;;4.93;;
20034;SDS011;10178;48.034;9.800;2023-09-12T03:09:34;5.05;;;4.60;;
20034;SDS011;10178;48.034;9.800;2023-09-12T03:12:02;5.22;;;4.78;;
20034;SDS011;10178;48.034;9.800;2023-09-12T03:14:29;5.72;;;5.22;;
20034;SDS011;10178;48.034;9.800;2023-09-12T03:16:56;5.43;;;4.93;;
20034;SDS011;10178;48.034;9.800;2023-09-12T03:19:21;9.90;;;5.15;;
20034;SDS011;10178;48.034;9.800;2023-09-12T03:21:47;5.70;;;5.20;;
20034;SDS011;10178;48.034;9.800;2023-09-12T03:24:13;5.80;;;5.30;;
20034;SDS011;10178;48.034;9.800;2023-09-12T03:26:38;4.80;;;4.40;;
20034;SDS011;10178;48.034;9.800;2023-09-12T03:29:04;5.30;;;4.80;;
20034;SDS011;10178;48.034;9.800;2023-09-12T03:31:30;6.18;;;5.57;;
20034;SDS011;10178;48.034;9.800;2023-09-12T03:33:56;5.90;;;5.40;;
20034;SDS011;10178;48.034;9.800;2023-09-12T03:36:22;6.60;;;5.57;;
20034;SDS011;10178;48.034;9.800;2023-09-12T03:38:48;6.68;;;6.07;;
20034;SDS011;10178;48.034;9.800;2023-09-12T03:41:13;6.38;;;5.70;;
20034;SDS011;10178;48.034;9.800;2023-09-12T03:43:39;6.22;;;5.63;;
20034;SDS011;10178;48.034;9.800;2023-09-12T03:46:04;5.72;;;5.22;;
20034;SDS011;10178;48.034;9.800;2023-09-12T03:48:30;7.22;;;5.80;;
20034;SDS011;10178;48.034;9.800;2023-09-12T03:50:56;6.50;;;5.85;;
20034;SDS011;10178;48.034;9.800;2023-09-12T03:53:22;6.47;;;5.88;;
20034;SDS011;10178;48.034;9.800;2023-09-12T03:55:48;6.25;;;5.65;;
20034;SDS011;10178;48.034;9.800;2023-09-12T03:58:13;10.10;;;7.88;;
20034;SDS011;10178;48.034;9.800;2023-09-12T04:00:39;10.15;;;8.68;;
20034;SDS011;10178;48.034;9.800;2023-09-12T04:03:05;8.15;;;6.65;;
20034;SDS011;10178;48.034;9.800;2023-09-12T04:05:30;10.27;;;7.70;;
20034;SDS011;10178;48.034;9.800;2023-09-12T04:07:56;8.77;;;7.60;;
20034;SDS011;10178;48.034;9.800;2023-09-12T04:10:22;8.02;;;7.22;;
20034;SDS011;10178;48.034;9.800;2023-09-12T04:12:47;8.30;;;7.15;;
20034;SDS011;10178;48.034;9.800;2023-09-12T04:15:13;8.32;;;7.53;;
20034;SDS011;10178;48.034;9.800;2023-09-12T04:17:39;8.02;;;7.22;;
20034;SDS011;10178;48.034;9.800;2023-09-12T04:20:05;8.48;;;7.63;;
20034;SDS011;10178;48.034;9.800;2023-09-12T04:22:31;11.00;;;7.47;;
20034;SDS011;10178;48.034;9.800;2023-09-12T04:24:56;11.70;;;7.03;;
20034;SDS011;10178;48.034;9.800;2023-09-12T04:27:22;10.27;;;7.78;;
20034;SDS011;10178;48.034;9.800;2023-09-12T04:29:48;7.68;;;6.95;;
20034;SDS011;10178;48.034;9.800;2023-09-12T04:32:13;9.50;;;7.43;;
20034;SDS011;10178;48.034;9.800;2023-09-12T04:34:42;7.05;;;6.40;;
20034;SDS011;10178;48.034;9.800;2023-09-12T04:37:08;8.27;;;6.85;;
20034;SDS011;10178;48.034;9.800;2023-09-12T04:39:33;9.57;;;8.45;;
20034;SDS011;10178;48.034;9.800;2023-09-12T04:41:59;13.07;;;10.30;;
20034;SDS011;10178;48.034;9.800;2023-09-12T04:44:25;7.95;;;7.25;;
20034;SDS011;10178;48.034;9.800;2023-09-12T04:46:50;7.43;;;6.70;;
20034;SDS011;10178;48.034;9.800;2023-09-12T04:49:16;9.45;;;6.70;;
20034;SDS011;10178;48.034;9.800;2023-09-12T04:51:41;7.95;;;7.05;;
20034;SDS011;10178;48.034;9.800;2023-09-12T04:54:08;7.07;;;6.43;;
20034;SDS011;10178;48.034;9.800;2023-09-12T04:56:33;12.05;;;7.57;;
20034;SDS011;10178;48.034;9.800;2023-09-12T04:58:59;7.28;;;6.57;;
20034;SDS011;10178;48.034;9.800;2023-09-12T05:01:25;7.65;;;6.43;;
20034;SDS011;10178;48.034;9.800;2023-09-12T05:03:51;7.90;;;7.20;;
20034;SDS011;10178;48.034;9.800;2023-09-12T05:06:16;7.70;;;7.00;;
20034;SDS011;10178;48.034;9.800;2023-09-12T05:08:42;9.05;;;5.93;;
20034;SDS011;10178;48.034;9.800;2023-09-12T05:11:08;7.32;;;6.43;;
20034;SDS011;10178;48.034;9.800;2023-09-12T05:13:34;7.05;;;6.45;;
20034;SDS011;10178;48.034;9.800;2023-09-12T05:15:59;8.52;;;6.55;;
20034;SDS011;10178;48.034;9.800;2023-09-12T05:18:25;7.07;;;6.38;;
20034;SDS011;10178;48.034;9.800;2023-09-12T05:20:50;7.30;;;6.15;;
20034;SDS011;10178;48.034;9.800;2023-09-12T05:23:16;6.50;;;5.90;;
20034;SDS011;10178;48.034;9.800;2023-09-12T05:25:42;6.47;;;5.68;;
20034;SDS011;10178;48.034;9.800;2023-09-12T05:28:07;7.65;;;5.93;;
20034;SDS011;10178;48.034;9.800;2023-09-12T05:30:33;7.45;;;5.88;;
20034;SDS011;10178;48.034;9.800;2023-09-12T05:32:58;9.35;;;6.00;;
20034;SDS011;10178;48.034;9.800;2023-09-12T05:35:24;7.55;;;5.80;;
20034;SDS011;10178;48.034;9.800;2023-09-12T05:37:50;6.03;;;5.35;;
20034;SDS011;10178;48.034;9.800;2023-09-12T05:40:17;6.00;;;5.38;;
20034;SDS011;10178;48.034;9.800;2023-09-12T05:42:43;7.57;;;5.50;;
20034;SDS011;10178;48.034;9.800;2023-09-12T05:45:08;6.43;;;5.80;;
20034;SDS011;10178;48.034;9.800;2023-09-12T05:47:34;6.22;;;5.65;;
20034;SDS011;10178;48.034;9.800;2023-09-12T05:50:00;8.98;;;6.45;;
20034;SDS011;10178;48.034;9.800;2023-09-12T05:52:25;6.32;;;5.47;;
20034;SDS011;10178;48.034;9.800;2023-09-12T05:54:51;6.70;;;6.00;;
20034;SDS011;10178;48.034;9.800;2023-09-12T05:57:17;7.15;;;5.40;;
20034;SDS011;10178;48.034;9.800;2023-09-12T05:59:42;8.38;;;6.05;;
20034;SDS011;10178;48.034;9.800;2023-09-12T06:02:08;6.13;;;5.63;;
20034;SDS011;10178;48.034;9.800;2023-09-12T06:04:34;6.28;;;5.68;;
20034;SDS011;10178;48.034;9.800;2023-09-12T06:07:01;6.47;;;5.85;;
20034;SDS011;10178;48.034;9.800;2023-09-12T06:09:27;7.55;;;6.15;;
20034;SDS011;10178;48.034;9.800;2023-09-12T06:11:53;6.32;;;5.72;;
20034;SDS011;10178;48.034;9.800;2023-09-12T06:14:19;7.13;;;6.35;;
20034;SDS011;10178;48.034;9.800;2023-09-12T06:16:44;6.28;;;5.68;;
20034;SDS011;10178;48.034;9.800;2023-09-12T06:19:10;6.63;;;5.95;;
20034;SDS011;10178;48.034;9.800;2023-09-12T06:21:36;9.32;;;6.10;;
20034;SDS011;10178;48.034;9.800;2023-09-12T06:24:19;6.88;;;5.88;;
20034;SDS011;10178;48.034;9.800;2023-09-12T06:26:46;6.20;;;5.63;;
20034;SDS011;10178;48.034;9.800;2023-09-12T06:29:13;8.80;;;6.10;;
20034;SDS011;10178;48.034;9.800;2023-09-12T06:31:39;7.95;;;6.63;;
20034;SDS011;10178;48.034;9.800;2023-09-12T06:34:09;7.03;;;6.32;;
20034;SDS011;10178;48.034;9.800;2023-09-12T06:36:35;7.13;;;6.47;;
20034;SDS011;10178;48.034;9.800;2023-09-12T06:39:01;8.15;;;5.90;;
20034;SDS011;10178;48.034;9.800;2023-09-12T06:41:27;7.68;;;6.18;;
20034;SDS011;10178;48.034;9.800;2023-09-12T06:43:53;14.77;;;10.40;;
20034;SDS011;10178;48.034;9.800;2023-09-12T06:46:22;10.65;;;6.20;;
20034;SDS011;10178;48.034;9.800;2023-09-12T06:48:47;7.55;;;6.07;;
20034;SDS011;10178;48.034;9.800;2023-09-12T06:51:15;6.97;;;6.28;;
20034;SDS011;10178;48.034;9.800;2023-09-12T06:53:42;15.88;;;10.57;;
20034;SDS011;10178;48.034;9.800;2023-09-12T06:56:08;7.35;;;5.90;;
20034;SDS011;10178;48.034;9.800;2023-09-12T06:58:34;10.75;;;6.80;;
20034;SDS011;10178;48.034;9.800;2023-09-12T07:01:03;7.40;;;6.57;;
20034;SDS011;10178;48.034;9.800;2023-09-12T07:03:31;11.70;;;7.10;;
20034;SDS011;10178;48.034;9.800;2023-09-12T07:05:57;8.10;;;6.32;;
20034;SDS011;10178;48.034;9.800;2023-09-12T07:08:23;7.85;;;6.65;;
20034;SDS011;10178;48.034;9.800;2023-09-12T07:10:49;9.30;;;6.38;;
20034;SDS011;10178;48.034;9.800;2023-09-12T07:13:14;8.57;;;6.57;;
20034;SDS011;10178;48.034;9.800;2023-09-12T07:15:40;8.65;;;6.43;;
20034;SDS011;10178;48.034;9.800;2023-09-12T07:18:06;8.20;;;6.68;;
20034;SDS011;10178;48.034;9.800;2023-09-12T07:20:34;11.68;;;6.93;;
20034;SDS011;10178;48.034;9.800;2023-09-12T07:23:00;18.40;;;11.65;;
20034;SDS011;10178;48.034;9.800;2023-09-12T07:25:29;16.45;;;10.75;;
20034;SDS011;10178;48.034;9.800;2023-09-12T07:27:54;13.77;;;8.45;;
20034;SDS011;10178;48.034;9.800;2023-09-12T07:30:20;7.85;;;6.30;;
20034;SDS011;10178;48.034;9.800;2023-09-12T07:32:45;10.70;;;7.03;;
20034;SDS011;10178;48.034;9.800;2023-09-12T07:35:11;8.70;;;6.97;;
20034;SDS011;10178;48.034;9.800;2023-09-12T07:37:37;8.30;;;6.25;;
20034;SDS011;10178;48.034;9.800;2023-09-12T07:40:02;9.05;;;7.00;;
20034;SDS011;10178;48.034;9.800;2023-09-12T07:42:34;9.82;;;7.95;;
20034;SDS011;10178;48.034;9.800;2023-09-12T07:45:01;16.65;;;10.18;;
20034;SDS011;10178;48.034;9.800;2023-09-12T07:47:28;12.98;;;10.82;;
20034;SDS011;10178;48.034;9.800;2023-09-12T07:49:53;12.35;;;10.98;;
20034;SDS011;10178;48.034;9.800;2023-09-12T07:52:19;10.15;;;7.85;;
20034;SDS011;10178;48.034;9.800;2023-09-12T07:54:45;11.52;;;10.25;;
20034;SDS011;10178;48.034;9.800;2023-09-12T07:57:11;9.00;;;6.65;;
20034;SDS011;10178;48.034;9.800;2023-09-12T07:59:36;7.82;;;7.03;;
20034;SDS011;10178;48.034;9.800;2023-09-12T08:02:02;9.05;;;7.85;;
20034;SDS011;10178;48.034;9.800;2023-09-12T08:04:28;10.23;;;7.60;;
20034;SDS011;10178;48.034;9.800;2023-09-12T08:06:54;8.75;;;7.13;;
20034;SDS011;10178;48.034;9.800;2023-09-12T08:09:20;7.55;;;6.85;;
20034;SDS011;10178;48.034;9.800;2023-09-12T08:11:45;9.27;;;7.45;;
20034;SDS011;10178;48.034;9.800;2023-09-12T08:14:11;9.13;;;7.13;;
20034;SDS011;10178;48.034;9.800;2023-09-12T08:16:37;7.80;;;7.03;;
20034;SDS011;10178;48.034;9.800;2023-09-12T08:19:03;13.13;;;9.50;;
20034;SDS011;10178;48.034;9.800;2023-09-12T08:21:29;10.20;;;7.53;;
20034;SDS011;10178;48.034;9.800;2023-09-12T08:23:55;15.68;;;10.15;;
20034;SDS011;10178;48.034;9.800;2023-09-12T08:26:21;12.38;;;8.45;;
20034;SDS011;10178;48.034;9.800;2023-09-12T08:28:46;15.20;;;11.45;;
20034;SDS011;10178;48.034;9.800;2023-09-12T08:31:12;12.13;;;10.23;;
20034;SDS011;10178;48.034;9.800;2023-09-12T08:33:37;12.50;;;10.98;;
20034;SDS011;10178;48.034;9.800;2023-09-12T08:36:03;8.07;;;7.18;;
20034;SDS011;10178;48.034;9.800;2023-09-12T08:38:29;7.97;;;7.18;;
20034;SDS011;10178;48.034;9.800;2023-09-12T08:40:55;9.00;;;8.05;;
20034;SDS011;10178;48.034;9.800;2023-09-12T08:43:22;7.88;;;7.05;;
20034;SDS011;10178;48.034;9.800;2023-09-12T08:45:47;8.85;;;7.30;;
20034;SDS011;10178;48.034;9.800;2023-09-12T08:48:13;9.40;;;8.43;;
20034;SDS011;10178;48.034;9.800;2023-09-12T08:50:41;7.72;;;7.03;;
20034;SDS011;10178;48.034;9.800;2023-09-12T08:53:07;9.50;;;8.30;;
20034;SDS011;10178;48.034;9.800;2023-09-12T08:55:32;13.43;;;8.13;;
20034;SDS011;10178;48.034;9.800;2023-09-12T08:58:00;9.65;;;7.63;;
20034;SDS011;10178;48.034;9.800;2023-09-12T09:00:28;12.70;;;10.40;;
20034;SDS011;10178;48.034;9.800;2023-09-12T09:02:54;14.13;;;9.52;;
20034;SDS011;10178;48.034;9.800;2023-09-12T09:05:21;8.05;;;7.25;;
20034;SDS011;10178;48.034;9.800;2023-09-12T09:07:48;11.68;;;10.13;;
20034;SDS011;10178;48.034;9.800;2023-09-12T09:10:18;8.68;;;7.88;;
20034;SDS011;10178;48.034;9.800;2023-09-12T09:12:45;10.15;;;7.63;;
20034;SDS011;10178;48.034;9.800;2023-09-12T09:17:51;9.70;;;7.68;;
20034;SDS011;10178;48.034;9.800;2023-09-12T09:20:28;12.20;;;10.88;;
20034;SDS011;10178;48.034;9.800;2023-09-12T09:23:05;12.57;;;10.52;;
20034;SDS011;10178;48.034;9.800;2023-09-12T09:25:39;12.93;;;9.85;;
20034;SDS011;10178;48.034;9.800;2023-09-12T09:28:16;12.15;;;10.75;;
20034;SDS011;10178;48.034;9.800;2023-09-12T09:30:51;15.52;;;10.43;;
20034;SDS011;10178;48.034;9.800;2023-09-12T09:33:20;12.27;;;10.55;;
20034;SDS011;10178;48.034;9.800;2023-09-12T09:35:50;13.88;;;10.30;;
20034;SDS011;10178;48.034;9.800;2023-09-12T09:38:26;15.85;;;10.55;;
20034;SDS011;10178;48.034;9.800;2023-09-12T09:40:52;15.73;;;9.73;;
20034;SDS011;10178;48.034;9.800;2023-09-12T09:43:19;13.27;;;10.32;;
20034;SDS011;10178;48.034;9.800;2023-09-12T09:45:46;11.35;;;9.98;;
20034;SDS011;10178;48.034;9.800;2023-09-12T09:48:21;11.75;;;10.10;;
20034;SDS011;10178;48.034;9.800;2023-09-12T09:50:48;13.15;;;10.95;;
20034;SDS011;10178;48.034;9.800;2023-09-12T09:53:14;16.63;;;9.30;;
20034;SDS011;10178;48.034;9.800;2023-09-12T09:55:40;14.55;;;10.35;;
20034;SDS011;10178;48.034;9.800;2023-09-12T09:58:07;10.05;;;9.02;;
20034;SDS011;10178;48.034;9.800;2023-09-12T10:00:33;10.05;;;9.05;;
20034;SDS011;10178;48.034;9.800;2023-09-12T10:03:01;9.73;;;8.77;;
20034;SDS011;10178;48.034;9.800;2023-09-12T10:05:29;9.32;;;8.52;;
20034;SDS011;10178;48.034;9.800;2023-09-12T10:07:57;13.07;;;9.20;;
20034;SDS011;10178;48.034;9.800;2023-09-12T10:10:24;10.95;;;9.82;;
20034;SDS011;10178;48.034;9.800;2023-09-12T10:12:54;10.70;;;9.15;;
20034;SDS011;10178;48.034;9.800;2023-09-12T10:15:22;10.10;;;8.73;;
20034;SDS011;10178;48.034;9.800;2023-09-12T10:17:59;9.93;;;9.02;;
20034;SDS011;10178;48.034;9.800;2023-09-12T10:23:52;12.65;;;9.27;;
20034;SDS011;10178;48.034;9.800;2023-09-12T10:27:11;10.23;;;9.23;;
20034;SDS011;10178;48.034;9.800;2023-09-12T10:29:38;10.25;;;9.25;;
20034;SDS011;10178;48.034;9.800;2023-09-12T10:32:04;10.35;;;8.23;;
20034;SDS011;10178;48.034;9.800;2023-09-12T10:34:31;8.90;;;8.07;;
20034;SDS011;10178;48.034;9.800;2023-09-12T10:36:58;10.23;;;8.70;;
20034;SDS011;10178;48.034;9.800;2023-09-12T10:39:31;9.30;;;8.40;;
20034;SDS011;10178;48.034;9.800;2023-09-12T10:42:16;9.32;;;8.43;;
20034;SDS011;10178;48.034;9.800;2023-09-12T10:44:43;10.10;;;9.02;;
20034;SDS011;10178;48.034;9.800;2023-09-12T10:47:10;10.68;;;8.75;;
20034;SDS011;10178;48.034;9.800;2023-09-12T10:49:36;10.38;;;8.75;;
20034;SDS011;10178;48.034;9.800;2023-09-12T10:52:02;9.55;;;8.63;;
20034;SDS011;10178;48.034;9.800;2023-09-12T10:54:38;9.65;;;8.30;;
20034;SDS011;10178;48.034;9.800;2023-09-12T10:57:11;9.43;;;8.32;;
20034;SDS011;10178;48.034;9.800;2023-09-12T11:02:33;9.77;;;8.75;;
20034;SDS011;10178;48.034;9.800;2023-09-12T11:05:00;10.32;;;8.98;;
20034;SDS011;10178;48.034;9.800;2023-09-12T11:12:49;11.65;;;8.32;;
20034;SDS011;10178;48.034;9.800;2023-09-12T11:15:19;9.65;;;8.75;;
20034;SDS011;10178;48.034;9.800;2023-09-12T11:17:47;10.05;;;8.25;;
20034;SDS011;10178;48.034;9.800;2023-09-12T11:20:25;9.50;;;8.52;;
20034;SDS011;10178;48.034;9.800;2023-09-12T11:22:51;9.48;;;7.40;;
20034;SDS011;10178;48.034;9.800;2023-09-12T11:25:19;7.30;;;6.60;;
20034;SDS011;10178;48.034;9.800;2023-09-12T11:30:16;8.05;;;7.25;;
20034;SDS011;10178;48.034;9.800;2023-09-12T11:33:01;10.27;;;7.20;;
20034;SDS011;10178;48.034;9.800;2023-09-12T11:35:29;8.80;;;7.90;;
20034;SDS011;10178;48.034;9.800;2023-09-12T11:38:00;9.50;;;6.78;;
20034;SDS011;10178;48.034;9.800;2023-09-12T11:42:58;8.52;;;7.78;;
20034;SDS011;10178;48.034;9.800;2023-09-12T11:45:24;9.23;;;8.38;;
20034;SDS011;10178;48.034;9.800;2023-09-12T11:47:51;9.57;;;7.63;;
20034;SDS011;10178;48.034;9.800;2023-09-12T11:55:33;9.32;;;7.38;;
20034;SDS011;10178;48.034;9.800;2023-09-12T11:58:02;8.00;;;6.95;;
20034;SDS011;10178;48.034;9.800;2023-09-12T12:00:28;12.35;;;7.50;;
20034;SDS011;10178;48.034;9.800;2023-09-12T12:02:54;8.77;;;7.97;;
20034;SDS011;10178;48.034;9.800;2023-09-12T12:05:20;8.38;;;7.50;;
20034;SDS011;10178;48.034;9.800;2023-09-12T12:07:46;9.60;;;8.15;;
20034;SDS011;10178;48.034;9.800;2023-09-12T12:10:13;8.30;;;7.50;;
20034;SDS011;10178;48.034;9.800;2023-09-12T12:12:39;9.10;;;8.30;;
20034;SDS011;10178;48.034;9.800;2023-09-12T12:15:10;11.25;;;7.70;;
20034;SDS011;10178;48.034;9.800;2023-09-12T12:17:41;8.88;;;8.00;;
20034;SDS011;10178;48.034;9.800;2023-09-12T12:20:08;11.02;;;7.60;;
20034;SDS011;10178;48.034;9.800;2023-09-12T12:22:39;10.73;;;7.60;;
20034;SDS011;10178;48.034;9.800;2023-09-12T12:25:08;10.00;;;7.55;;
20034;SDS011;10178;48.034;9.800;2023-09-12T12:27:38;10.35;;;7.97;;
20034;SDS011;10178;48.034;9.800;2023-09-12T12:30:09;8.32;;;7.40;;
20034;SDS011;10178;48.034;9.800;2023-09-12T12:32:40;8.75;;;7.90;;
20034;SDS011;10178;48.034;9.800;2023-09-12T12:35:08;9.65;;;8.30;;
20034;SDS011;10178;48.034;9.800;2023-09-12T12:37:35;9.65;;;7.80;;
20034;SDS011;10178;48.034;9.800;2023-09-12T12:40:02;10.05;;;8.20;;
20034;SDS011;10178;48.034;9.800;2023-09-12T12:42:33;10.10;;;7.60;;
20034;SDS011;10178;48.034;9.800;2023-09-12T12:45:00;8.70;;;7.82;;
20034;SDS011;10178;48.034;9.800;2023-09-12T12:47:26;8.57;;;7.65;;
20034;SDS011;10178;48.034;9.800;2023-09-12T12:49:53;8.60;;;7.70;;
20034;SDS011;10178;48.034;9.800;2023-09-12T12:52:25;8.77;;;8.02;;
20034;SDS011;10178;48.034;9.800;2023-09-12T12:54:51;9.75;;;8.13;;
20034;SDS011;10178;48.034;9.800;2023-09-12T12:57:19;8.05;;;7.35;;
20034;SDS011;10178;48.034;9.800;2023-09-12T12:59:46;8.68;;;7.88;;
20034;SDS011;10178;48.034;9.800;2023-09-12T13:02:15;9.82;;;7.50;;
20034;SDS011;10178;48.034;9.800;2023-09-12T13:04:41;8.82;;;7.72;;
20034;SDS011;10178;48.034;9.800;2023-09-12T13:07:07;9.90;;;7.25;;
20034;SDS011;10178;48.034;9.800;2023-09-12T13:09:32;8.60;;;6.88;;
20034;SDS011;10178;48.034;9.800;2023-09-12T13:11:58;8.13;;;7.35;;
20034;SDS011;10178;48.034;9.800;2023-09-12T13:14:24;7.78;;;6.38;;
20034;SDS011;10178;48.034;9.800;2023-09-12T13:16:56;7.25;;;6.50;;
20034;SDS011;10178;48.034;9.800;2023-09-12T13:19:22;11.50;;;8.52;;
20034;SDS011;10178;48.034;9.800;2023-09-12T13:21:52;8.23;;;7.40;;
20034;SDS011;10178;48.034;9.800;2023-09-12T13:24:56;8.65;;;7.82;;
20034;SDS011;10178;48.034;9.800;2023-09-12T13:28:17;8.10;;;7.30;;
20034;SDS011;10178;48.034;9.800;2023-09-12T13:31:06;8.35;;;7.55;;
20034;SDS011;10178;48.034;9.800;2023-09-12T13:33:55;10.80;;;7.50;;
20034;SDS011;10178;48.034;9.800;2023-09-12T13:37:22;8.60;;;7.80;;
20034;SDS011;10178;48.034;9.800;2023-09-12T13:39:48;8.43;;;7.28;;
20034;SDS011;10178;48.034;9.800;2023-09-12T13:42:17;8.70;;;7.90;;
20034;SDS011;10178;48.034;9.800;2023-09-12T13:44:49;8.30;;;7.50;;
20034;SDS011;10178;48.034;9.800;2023-09-12T13:47:15;8.93;;;7.47;;
20034;SDS011;10178;48.034;9.800;2023-09-12T13:49:48;10.23;;;7.93;;
20034;SDS011;10178;48.034;9.800;2023-09-12T13:52:37;8.00;;;7.20;;
20034;SDS011;10178;48.034;9.800;2023-09-12T13:55:02;9.15;;;7.68;;
20034;SDS011;10178;48.034;9.800;2023-09-12T13:57:28;9.00;;;7.97;;
20034;SDS011;10178;48.034;9.800;2023-09-12T14:00:00;8.63;;;7.75;;
20034;SDS011;10178;48.034;9.800;2023-09-12T14:02:57;8.18;;;7.38;;
20034;SDS011;10178;48.034;9.800;2023-09-12T14:05:22;7.90;;;5.85;;
20034;SDS011;10178;48.034;9.800;2023-09-12T14:07:49;9.27;;;6.80;;
20034;SDS011;10178;48.034;9.800;2023-09-12T14:10:15;8.57;;;7.22;;
20034;SDS011;10178;48.034;9.800;2023-09-12T14:12:41;7.95;;;6.97;;
20034;SDS011;10178;48.034;9.800;2023-09-12T14:15:09;9.57;;;6.90;;
20034;SDS011;10178;48.034;9.800;2023-09-12T14:17:35;8.52;;;6.32;;
20034;SDS011;10178;48.034;9.800;2023-09-12T14:20:00;8.25;;;6.88;;
20034;SDS011;10178;48.034;9.800;2023-09-12T14:23:17;7.68;;;6.03;;
20034;SDS011;10178;48.034;9.800;2023-09-12T14:25:42;8.05;;;6.72;;
20034;SDS011;10178;48.034;9.800;2023-09-12T14:28:08;6.95;;;6.10;;
20034;SDS011;10178;48.034;9.800;2023-09-12T14:30:33;7.75;;;6.57;;
20034;SDS011;10178;48.034;9.800;2023-09-12T14:33:01;9.48;;;6.47;;
20034;SDS011;10178;48.034;9.800;2023-09-12T14:35:28;11.55;;;7.03;;
20034;SDS011;10178;48.034;9.800;2023-09-12T14:38:12;9.85;;;6.10;;
20034;SDS011;10178;48.034;9.800;2023-09-12T14:40:37;6.82;;;6.13;;
20034;SDS011;10178;48.034;9.800;2023-09-12T14:43:04;7.18;;;6.45;;
20034;SDS011;10178;48.034;9.800;2023-09-12T14:45:30;7.50;;;6.45;;
20034;SDS011;10178;48.034;9.800;2023-09-12T14:47:57;8.77;;;6.55;;
20034;SDS011;10178;48.034;9.800;2023-09-12T14:50:23;7.80;;;7.20;;
20034;SDS011;10178;48.034;9.800;2023-09-12T14:52:50;7.55;;;6.88;;
20034;SDS011;10178;48.034;9.800;2023-09-12T14:55:16;8.43;;;7.00;;
20034;SDS011;10178;48.034;9.800;2023-09-12T14:57:42;11.00;;;6.47;;
20034;SDS011;10178;48.034;9.800;2023-09-12T15:00:09;7.05;;;6.32;;
20034;SDS011;10178;48.034;9.800;2023-09-12T15:02:36;8.57;;;6.53;;
20034;SDS011;10178;48.034;9.800;2023-09-12T15:05:02;8.90;;;6.03;;
20034;SDS011;10178;48.034;9.800;2023-09-12T15:07:31;8.18;;;7.38;;
20034;SDS011;10178;48.034;9.800;2023-09-12T15:09:58;7.80;;;7.10;;
20034;SDS011;10178;48.034;9.800;2023-09-12T15:12:25;8.30;;;7.30;;
20034;SDS011;10178;48.034;9.800;2023-09-12T15:14:51;9.23;;;7.47;;
20034;SDS011;10178;48.034;9.800;2023-09-12T15:17:17;9.55;;;7.30;;
20034;SDS011;10178;48.034;9.800;2023-09-12T15:19:43;8.85;;;7.20;;
20034;SDS011;10178;48.034;9.800;2023-09-12T15:22:09;7.43;;;6.80;;
20034;SDS011;10178;48.034;9.800;2023-09-12T15:24:34;8.10;;;7.35;;